Time;durP1;ratioP1;P1;durP2;ratioP2;P2;SDS_P1;SDS_P2;PMS_P1;PMS_P2;Temp;Humidity;BMP_temperature;BMP_pressure;BME280_temperature;BME280_humidity;BME280_pressure;Samples;Min_cycle;Max_cycle;Signal;HPM_P1;HPM_P2
2021/01/12 00:02:05;;;;;;;15.77;7.33;;;;;;;;;;10402718;28;20197;-75
2021/01/12 00:07:07;;;;;;;23.03;9.13;;;;;;;;;;10387833;28;20718;-75
2021/01/12 00:12:09;;;;;;;24.67;11.40;;;;;;;;;;10405434;28;20220;-75
2021/01/12 00:17:12;;;;;;;21.93;10.83;;;;;;;;;;10400756;28;20221;-75
2021/01/12 00:22:14;;;;;;;14.17;5.43;;;;;;;;;;10403681;28;20197;-73
2021/01/12 00:27:17;;;;;;;10.63;5.27;;;;;;;;;;10402629;28;20214;-75
2021/01/12 00:32:20;;;;;;;11.57;4.77;;;;;;;;;;10403081;28;20757;-74
2021/01/12 00:37:24;;;;;;;15.10;7.10;;;;;;;;;;10375746;28;20225;-75
2021/01/12 00:42:25;;;;;;;21.50;9.93;;;;;;;;;;10401405;28;20190;-74
2021/01/12 00:47:28;;;;;;;16.07;7.50;;;;;;;;;;10380851;28;20693;-76
2021/01/12 00:52:30;;;;;;;8.77;4.23;;;;;;;;;;10381708;28;20213;-74
2021/01/12 00:57:31;;;;;;;18.03;8.90;;;;;;;;;;10387497;28;20213;-76
2021/01/12 01:02:35;;;;;;;15.17;6.47;;;;;;;;;;10406993;28;20197;-73
2021/01/12 01:07:37;;;;;;;26.03;11.53;;;;;;;;;;10403337;28;20268;-73
2021/01/12 01:12:38;;;;;;;18.20;8.93;;;;;;;;;;10415696;28;20266;-77
2021/01/12 01:17:41;;;;;;;21.37;10.30;;;;;;;;;;10404395;28;20209;-74
2021/01/12 01:22:43;;;;;;;22.10;11.20;;;;;;;;;;10389828;28;20225;-75
2021/01/12 01:27:45;;;;;;;9.33;5.10;;;;;;;;;;10403816;28;20709;-77
2021/01/12 01:32:47;;;;;;;20.30;9.83;;;;;;;;;;10403580;28;20601;-74
2021/01/12 01:37:49;;;;;;;18.30;8.93;;;;;;;;;;10385898;28;20245;-76
2021/01/12 01:42:50;;;;;;;20.90;9.90;;;;;;;;;;10405625;28;20208;-75
2021/01/12 01:47:53;;;;;;;9.50;4.87;;;;;;;;;;10396177;28;20222;-73
2021/01/12 01:52:56;;;;;;;21.50;10.90;;;;;;;;;;10404691;28;20271;-76
2021/01/12 01:57:57;;;;;;;11.33;5.23;;;;;;;;;;10401394;28;20245;-74
2021/01/12 02:03:03;;;;;;;15.17;7.27;;;;;;;;;;10403322;28;20441;-75
2021/01/12 02:08:07;;;;;;;16.50;7.63;;;;;;;;;;10407290;28;20216;-75
2021/01/12 02:13:12;;;;;;;13.03;4.70;;;;;;;;;;10400225;28;20218;-74
2021/01/12 02:18:15;;;;;;;18.00;8.40;;;;;;;;;;10389781;28;20733;-75
2021/01/12 02:23:18;;;;;;;17.63;7.70;;;;;;;;;;10402670;28;20214;-76
2021/01/12 02:28:21;;;;;;;17.97;7.43;;;;;;;;;;10406990;28;20232;-73
2021/01/12 02:33:22;;;;;;;20.33;10.00;;;;;;;;;;10400689;28;20297;-74
2021/01/12 02:38:24;;;;;;;17.50;8.13;;;;;;;;;;10406398;28;20243;-75
2021/01/12 02:43:26;;;;;;;22.57;10.27;;;;;;;;;;10407124;28;20224;-73
2021/01/12 02:48:28;;;;;;;18.90;8.87;;;;;;;;;;10406261;28;20681;-74
2021/01/12 02:53:29;;;;;;;16.50;7.80;;;;;;;;;;10405123;28;20200;-74
2021/01/12 02:58:32;;;;;;;16.93;8.53;;;;;;;;;;10404810;28;20217;-74
2021/01/12 03:03:33;;;;;;;16.27;8.07;;;;;;;;;;10387529;28;20214;-76
2021/01/12 03:08:35;;;;;;;19.60;9.50;;;;;;;;;;10404795;28;20221;-76
2021/01/12 03:13:38;;;;;;;20.57;9.60;;;;;;;;;;10404593;28;20273;-75
2021/01/12 03:18:39;;;;;;;13.37;6.77;;;;;;;;;;10409264;28;20285;-73
2021/01/12 03:23:41;;;;;;;14.57;7.10;;;;;;;;;;10400687;28;20275;-75
2021/01/12 03:28:43;;;;;;;20.13;9.40;;;;;;;;;;10398275;28;20237;-75
2021/01/12 03:33:45;;;;;;;19.30;9.43;;;;;;;;;;10407121;28;20206;-75
2021/01/12 03:38:47;;;;;;;20.90;9.83;;;;;;;;;;10407089;28;20225;-75
2021/01/12 03:43:49;;;;;;;18.37;8.43;;;;;;;;;;10386186;28;20301;-75
2021/01/12 03:48:51;;;;;;;16.60;7.93;;;;;;;;;;10402724;28;20209;-74
2021/01/12 03:53:53;;;;;;;19.00;8.60;;;;;;;;;;10401120;28;20259;-73
2021/01/12 03:58:55;;;;;;;15.07;6.53;;;;;;;;;;10394115;28;20305;-74
2021/01/12 04:03:57;;;;;;;19.57;10.00;;;;;;;;;;10380532;28;20237;-73
2021/01/12 04:08:58;;;;;;;9.93;4.43;;;;;;;;;;10404629;28;20317;-73
2021/01/12 04:14:03;;;;;;;13.50;6.43;;;;;;;;;;10401967;28;20200;-74
2021/01/12 04:19:05;;;;;;;14.53;6.97;;;;;;;;;;10405001;28;20284;-76
2021/01/12 04:24:07;;;;;;;18.27;7.90;;;;;;;;;;10397414;28;20194;-75
2021/01/12 04:29:09;;;;;;;13.10;5.43;;;;;;;;;;10405358;28;20209;-74
2021/01/12 04:34:11;;;;;;;15.37;7.10;;;;;;;;;;10389880;28;20241;-74
2021/01/12 04:39:12;;;;;;;12.40;5.77;;;;;;;;;;10389954;28;20225;-74
2021/01/12 04:44:15;;;;;;;13.90;6.53;;;;;;;;;;10404647;28;20198;-74
2021/01/12 04:49:16;;;;;;;12.37;4.83;;;;;;;;;;10409322;28;20205;-74
2021/01/12 04:54:18;;;;;;;10.57;4.57;;;;;;;;;;10397788;28;20226;-75
2021/01/12 04:59:25;;;;;;;17.10;6.83;;;;;;;;;;10389688;28;20214;-73
2021/01/12 05:04:26;;;;;;;12.87;5.37;;;;;;;;;;10402132;28;20657;-74
2021/01/12 05:09:28;;;;;;;13.00;5.30;;;;;;;;;;10410600;28;20731;-75
2021/01/12 05:14:32;;;;;;;14.33;6.47;;;;;;;;;;10401728;28;20249;-78
2021/01/12 05:19:33;;;;;;;8.47;4.03;;;;;;;;;;10405254;28;20268;-78
2021/01/12 05:24:39;;;;;;;13.43;5.83;;;;;;;;;;10387422;28;20197;-77
2021/01/12 05:29:42;;;;;;;18.40;8.87;;;;;;;;;;10406996;28;20746;-74
2021/01/12 05:34:44;;;;;;;14.57;7.13;;;;;;;;;;10409204;28;20553;-73
2021/01/12 05:39:45;;;;;;;15.30;7.27;;;;;;;;;;10403255;28;20232;-73
2021/01/12 05:44:49;;;;;;;10.00;4.50;;;;;;;;;;10412198;28;20284;-75
2021/01/12 05:49:52;;;;;;;10.77;4.40;;;;;;;;;;10405848;28;20218;-73
2021/01/12 05:55:04;;;;;;;11.97;5.10;;;;;;;;;;10406861;28;20242;-75
2021/01/12 06:00:07;;;;;;;7.97;3.07;;;;;;;;;;10385578;28;20209;-74
2021/01/12 06:05:09;;;;;;;9.13;4.10;;;;;;;;;;10411752;28;20218;-73
2021/01/12 06:10:12;;;;;;;10.70;3.83;;;;;;;;;;10385085;28;20244;-73
2021/01/12 06:15:17;;;;;;;10.27;4.87;;;;;;;;;;10404800;28;20336;-73
2021/01/12 06:20:21;;;;;;;10.40;4.50;;;;;;;;;;10388932;28;20272;-72
2021/01/12 06:25:23;;;;;;;5.97;2.77;;;;;;;;;;10406644;28;20182;-74
2021/01/12 06:30:25;;;;;;;9.83;4.07;;;;;;;;;;10400407;28;20241;-73
2021/01/12 06:35:27;;;;;;;15.10;6.60;;;;;;;;;;10401629;28;20611;-72
2021/01/12 06:40:30;;;;;;;11.37;5.00;;;;;;;;;;10387620;28;20260;-72
2021/01/12 06:45:36;;;;;;;9.10;4.57;;;;;;;;;;10386022;28;20228;-73
2021/01/12 06:50:37;;;;;;;12.17;4.33;;;;;;;;;;10396656;28;20209;-75
2021/01/12 06:55:39;;;;;;;4.20;1.93;;;;;;;;;;10406015;28;20217;-73
2021/01/12 07:00:48;;;;;;;9.10;4.27;;;;;;;;;;10399849;28;20217;-73
2021/01/12 07:05:50;;;;;;;9.27;3.70;;;;;;;;;;10402508;28;20313;-75
2021/01/12 07:10:51;;;;;;;5.53;2.10;;;;;;;;;;10403779;28;20555;-75
2021/01/12 07:15:54;;;;;;;3.50;1.43;;;;;;;;;;10387046;28;20194;-76
2021/01/12 07:21:13;;;;;;;5.57;2.43;;;;;;;;;;10401730;28;20240;-75
2021/01/12 07:26:15;;;;;;;9.53;3.77;;;;;;;;;;10398591;28;20296;-75
2021/01/12 07:31:26;;;;;;;11.17;3.73;;;;;;;;;;10398840;28;20296;-75
2021/01/12 07:36:28;;;;;;;9.13;3.13;;;;;;;;;;10373705;28;20283;-71
2021/01/12 07:41:29;;;;;;;6.07;1.83;;;;;;;;;;10399587;28;20182;-70
2021/01/12 07:46:32;;;;;;;4.43;1.90;;;;;;;;;;10396941;28;20291;-72
2021/01/12 07:51:34;;;;;;;2.87;1.53;;;;;;;;;;10378545;28;20225;-71
2021/01/12 07:56:36;;;;;;;4.57;1.60;;;;;;;;;;10395934;28;20209;-72
2021/01/12 08:01:39;;;;;;;6.13;2.60;;;;;;;;;;10398376;28;20193;-73
2021/01/12 08:06:41;;;;;;;4.47;1.33;;;;;;;;;;10381203;28;20210;-70
2021/01/12 08:11:43;;;;;;;6.33;2.33;;;;;;;;;;10397307;28;20269;-70
2021/01/12 08:16:46;;;;;;;4.30;1.47;;;;;;;;;;10398133;28;20308;-70
2021/01/12 08:21:48;;;;;;;5.83;2.40;;;;;;;;;;10397426;28;20233;-71
2021/01/12 08:26:50;;;;;;;5.63;2.00;;;;;;;;;;10396620;28;20227;-71
2021/01/12 08:32:03;;;;;;;3.23;1.60;;;;;;;;;;10396668;28;20626;-71
2021/01/12 08:37:07;;;;;;;5.70;2.23;;;;;;;;;;10395957;28;20233;-71
2021/01/12 08:42:09;;;;;;;3.97;1.47;;;;;;;;;;10397504;28;20282;-71
2021/01/12 08:47:11;;;;;;;2.10;1.03;;;;;;;;;;10375986;28;20300;-71
2021/01/12 08:52:15;;;;;;;3.87;1.87;;;;;;;;;;10394406;28;20725;-71
2021/01/12 08:57:17;;;;;;;5.13;1.93;;;;;;;;;;10378528;28;20269;-72
2021/01/12 09:02:19;;;;;;;3.30;1.30;;;;;;;;;;10376940;28;20281;-70
2021/01/12 09:07:21;;;;;;;4.07;1.60;;;;;;;;;;10396248;28;20209;-70
2021/01/12 09:12:23;;;;;;;4.30;1.47;;;;;;;;;;10387515;28;20218;-71
2021/01/12 09:17:26;;;;;;;2.20;1.10;;;;;;;;;;10388168;28;20244;-72
2021/01/12 09:22:33;;;;;;;4.43;1.50;;;;;;;;;;10408108;28;20194;-71
2021/01/12 09:27:39;;;;;;;3.27;1.30;;;;;;;;;;10409879;28;20214;-72
2021/01/12 09:32:41;;;;;;;2.93;1.30;;;;;;;;;;10398854;28;20709;-72
2021/01/12 09:37:43;;;;;;;1.50;1.03;;;;;;;;;;10406970;28;20236;-71
2021/01/12 09:42:45;;;;;;;2.53;0.80;;;;;;;;;;10408203;28;20225;-72
2021/01/12 09:47:47;;;;;;;5.03;1.17;;;;;;;;;;10399493;28;20272;-72
2021/01/12 09:52:49;;;;;;;3.80;1.20;;;;;;;;;;10410180;28;20216;-71
2021/01/12 09:57:52;;;;;;;1.10;0.53;;;;;;;;;;10400323;28;20222;-72
2021/01/12 10:02:54;;;;;;;2.60;0.93;;;;;;;;;;10408337;28;20190;-70
2021/01/12 10:07:56;;;;;;;1.33;0.83;;;;;;;;;;10394153;28;20237;-71
2021/01/12 10:12:58;;;;;;;1.57;0.70;;;;;;;;;;10386293;28;20225;-70
2021/01/12 10:18:03;;;;;;;2.13;1.30;;;;;;;;;;10408706;28;20249;-71
2021/01/12 10:23:05;;;;;;;3.10;1.10;;;;;;;;;;10398263;28;20252;-72
2021/01/12 10:28:07;;;;;;;1.57;0.70;;;;;;;;;;10405720;28;20225;-72
2021/01/12 10:33:10;;;;;;;3.20;1.20;;;;;;;;;;10395491;28;20532;-72
2021/01/12 10:38:11;;;;;;;2.43;0.90;;;;;;;;;;10400180;28;20260;-71
2021/01/12 10:43:14;;;;;;;1.90;1.03;;;;;;;;;;10398872;28;20558;-71
2021/01/12 10:48:17;;;;;;;3.23;0.97;;;;;;;;;;10395907;28;20244;-73
2021/01/12 10:53:20;;;;;;;2.50;1.27;;;;;;;;;;10399985;28;20248;-72
2021/01/12 10:58:40;;;;;;;1.80;0.77;;;;;;;;;;10388155;28;20216;-73
2021/01/12 11:03:44;;;;;;;2.67;1.20;;;;;;;;;;10391011;28;20246;-72
2021/01/12 11:08:47;;;;;;;1.87;0.97;;;;;;;;;;10378048;28;20241;-72
2021/01/12 11:13:56;;;;;;;1.80;1.13;;;;;;;;;;10398855;28;20233;-72
2021/01/12 11:18:59;;;;;;;3.20;1.30;;;;;;;;;;10400568;28;20222;-73
2021/01/12 11:24:03;;;;;;;1.73;0.93;;;;;;;;;;10398726;28;20484;-72
2021/01/12 11:29:05;;;;;;;3.00;1.30;;;;;;;;;;10396655;28;20308;-71
2021/01/12 11:34:08;;;;;;;1.37;0.87;;;;;;;;;;10401304;28;20221;-73
2021/01/12 11:39:10;;;;;;;3.63;1.47;;;;;;;;;;10398351;28;20263;-71
2021/01/12 11:44:12;;;;;;;2.77;1.17;;;;;;;;;;10404512;28;20197;-71
2021/01/12 11:49:14;;;;;;;1.10;0.80;;;;;;;;;;10400373;28;20239;-71
2021/01/12 11:54:16;;;;;;;2.13;0.70;;;;;;;;;;10397669;28;20214;-70
2021/01/12 11:59:18;;;;;;;2.33;0.57;;;;;;;;;;10376741;28;20308;-66
2021/01/12 12:04:22;;;;;;;1.80;0.70;;;;;;;;;;10380202;28;20186;-70
2021/01/12 12:09:24;;;;;;;1.23;0.80;;;;;;;;;;10399713;28;20757;-67
2021/01/12 12:14:25;;;;;;;0.93;0.70;;;;;;;;;;10394043;28;20200;-71
2021/01/12 12:19:30;;;;;;;1.73;0.80;;;;;;;;;;10397094;28;20237;-70
2021/01/12 12:24:31;;;;;;;2.23;0.83;;;;;;;;;;10391664;28;20220;-70
2021/01/12 12:29:33;;;;;;;0.90;0.60;;;;;;;;;;10406464;28;20876;-71
2021/01/12 12:34:36;;;;;;;2.17;1.00;;;;;;;;;;10400922;28;20225;-70
2021/01/12 12:39:38;;;;;;;1.07;0.70;;;;;;;;;;10381139;28;20315;-70
2021/01/12 12:44:39;;;;;;;1.97;0.90;;;;;;;;;;10400859;28;20193;-71
2021/01/12 12:49:42;;;;;;;1.63;0.50;;;;;;;;;;10397692;28;20221;-69
2021/01/12 12:54:43;;;;;;;1.33;0.70;;;;;;;;;;10404616;28;20267;-70
2021/01/12 12:59:45;;;;;;;1.43;0.67;;;;;;;;;;10384277;28;20224;-69
2021/01/12 13:04:48;;;;;;;2.23;0.93;;;;;;;;;;10393723;28;20305;-69
2021/01/12 13:09:50;;;;;;;1.73;0.70;;;;;;;;;;10408904;28;20217;-70
2021/01/12 13:14:53;;;;;;;0.73;0.50;;;;;;;;;;10391359;28;20193;-69
2021/01/12 13:20:04;;;;;;;1.87;0.80;;;;;;;;;;10404389;28;20253;-69
2021/01/12 13:25:06;;;;;;;1.07;0.73;;;;;;;;;;10412704;28;20233;-69
2021/01/12 13:30:09;;;;;;;1.23;0.57;;;;;;;;;;10406416;28;20245;-71
2021/01/12 13:35:11;;;;;;;1.23;0.83;;;;;;;;;;10407101;28;20195;-70
2021/01/12 13:40:14;;;;;;;1.37;0.70;;;;;;;;;;10410720;28;20214;-71
2021/01/12 13:45:16;;;;;;;1.03;0.50;;;;;;;;;;10411251;28;20736;-70
2021/01/12 13:50:19;;;;;;;1.97;0.93;;;;;;;;;;10385982;28;20218;-71
2021/01/12 13:55:21;;;;;;;1.23;0.60;;;;;;;;;;10401369;28;20206;-69
2021/01/12 14:00:23;;;;;;;1.43;0.53;;;;;;;;;;10396446;28;20209;-69
2021/01/12 14:05:26;;;;;;;0.73;0.43;;;;;;;;;;10408299;28;20389;-70
2021/01/12 14:10:27;;;;;;;0.90;0.60;;;;;;;;;;10405788;28;20293;-70
2021/01/12 14:15:29;;;;;;;0.40;0.40;;;;;;;;;;10398944;28;20328;-71
2021/01/12 14:20:32;;;;;;;1.53;1.00;;;;;;;;;;10401770;28;20305;-69
2021/01/12 14:25:34;;;;;;;1.10;0.53;;;;;;;;;;10398378;28;20218;-69
2021/01/12 14:30:36;;;;;;;1.63;0.90;;;;;;;;;;10382007;28;20214;-70
2021/01/12 14:35:39;;;;;;;1.40;0.77;;;;;;;;;;10408260;28;20205;-69
2021/01/12 14:40:45;;;;;;;0.97;0.40;;;;;;;;;;10387656;28;20272;-71
2021/01/12 14:45:47;;;;;;;1.00;0.73;;;;;;;;;;10405102;28;20546;-70
2021/01/12 14:50:50;;;;;;;1.40;0.63;;;;;;;;;;10399855;28;20237;-71
2021/01/12 14:55:51;;;;;;;2.10;0.90;;;;;;;;;;10406553;28;20236;-70
2021/01/12 15:00:53;;;;;;;0.33;0.30;;;;;;;;;;10407735;28;20240;-71
2021/01/12 15:05:55;;;;;;;0.33;0.30;;;;;;;;;;10404270;28;20208;-71
2021/01/12 15:10:57;;;;;;;1.70;0.67;;;;;;;;;;10405327;28;20612;-70
2021/01/12 15:16:00;;;;;;;0.70;0.50;;;;;;;;;;10405032;28;20278;-71
2021/01/12 15:21:05;;;;;;;0.70;0.50;;;;;;;;;;10401718;28;20205;-71
2021/01/12 15:26:07;;;;;;;0.90;0.70;;;;;;;;;;10392574;28;20270;-71
2021/01/12 15:31:10;;;;;;;2.13;0.63;;;;;;;;;;10410844;28;20248;-70
2021/01/12 15:36:14;;;;;;;0.37;0.37;;;;;;;;;;10416859;28;20197;-69
2021/01/12 15:41:15;;;;;;;0.73;0.60;;;;;;;;;;10408806;28;20591;-71
2021/01/12 15:46:17;;;;;;;1.83;0.90;;;;;;;;;;10413619;28;20221;-71
2021/01/12 15:51:20;;;;;;;0.30;0.30;;;;;;;;;;10414922;28;20209;-70
2021/01/12 15:56:21;;;;;;;0.53;0.40;;;;;;;;;;10414681;28;20250;-70
2021/01/12 16:01:23;;;;;;;1.03;0.60;;;;;;;;;;10415227;28;20681;-72
2021/01/12 16:06:26;;;;;;;1.43;0.73;;;;;;;;;;10409336;28;20498;-70
2021/01/12 16:11:32;;;;;;;2.10;0.70;;;;;;;;;;10421564;28;20213;-70
2021/01/12 16:16:34;;;;;;;0.33;0.30;;;;;;;;;;10402538;28;20264;-70
2021/01/12 16:21:39;;;;;;;0.47;0.40;;;;;;;;;;10384086;28;20292;-70
2021/01/12 16:26:41;;;;;;;0.90;0.40;;;;;;;;;;10404168;28;20257;-70
2021/01/12 16:31:43;;;;;;;1.03;0.50;;;;;;;;;;10403385;28;20213;-71
2021/01/12 16:36:46;;;;;;;3.27;0.90;;;;;;;;;;10399246;28;20217;-71
2021/01/12 16:41:53;;;;;;;0.70;0.50;;;;;;;;;;10403198;28;20254;-71
2021/01/12 16:46:55;;;;;;;0.30;0.27;;;;;;;;;;10398076;28;20215;-71
2021/01/12 16:52:01;;;;;;;0.20;0.20;;;;;;;;;;10397223;28;20217;-70
2021/01/12 16:57:05;;;;;;;0.73;0.30;;;;;;;;;;10396502;28;20245;-71
2021/01/12 17:02:21;;;;;;;0.70;0.23;;;;;;;;;;10382778;28;20194;-70
2021/01/12 17:07:24;;;;;;;1.20;0.40;;;;;;;;;;10404878;28;20219;-71
2021/01/12 17:12:26;;;;;;;1.80;0.77;;;;;;;;;;10407341;28;20206;-70
2021/01/12 17:17:33;;;;;;;0.20;0.20;;;;;;;;;;10409685;28;20685;-70
2021/01/12 17:22:40;;;;;;;0.97;0.60;;;;;;;;;;10387806;28;20189;-69
2021/01/12 17:27:42;;;;;;;1.03;0.43;;;;;;;;;;10403129;28;20229;-69
2021/01/12 17:32:46;;;;;;;0.70;0.70;;;;;;;;;;10402744;28;20213;-70
2021/01/12 17:37:49;;;;;;;0.30;0.20;;;;;;;;;;10405338;28;20221;-69
2021/01/12 17:42:51;;;;;;;0.83;0.47;;;;;;;;;;10415534;28;20680;-70
2021/01/12 17:47:54;;;;;;;0.53;0.43;;;;;;;;;;10415743;28;20245;-69
2021/01/12 17:52:58;;;;;;;2.23;0.60;;;;;;;;;;10409229;28;20225;-70
2021/01/12 17:58:04;;;;;;;1.93;0.67;;;;;;;;;;10409122;28;20216;-69
2021/01/12 18:03:07;;;;;;;1.07;0.50;;;;;;;;;;10408481;28;20224;-69
2021/01/12 18:08:12;;;;;;;0.87;0.70;;;;;;;;;;10390844;28;20320;-70
2021/01/12 18:13:18;;;;;;;1.17;0.80;;;;;;;;;;10404695;28;20207;-69
2021/01/12 18:18:19;;;;;;;0.67;0.40;;;;;;;;;;10389668;28;20634;-70
2021/01/12 18:23:24;;;;;;;1.30;0.90;;;;;;;;;;10372637;28;20209;-69
2021/01/12 18:28:29;;;;;;;1.63;0.70;;;;;;;;;;10407692;28;20633;-71
2021/01/12 18:33:31;;;;;;;1.77;0.90;;;;;;;;;;10386373;28;20662;-70
2021/01/12 18:38:33;;;;;;;1.30;0.70;;;;;;;;;;10407537;28;20228;-69
2021/01/12 18:43:36;;;;;;;1.47;0.73;;;;;;;;;;10385785;28;20186;-69
2021/01/12 18:48:38;;;;;;;0.73;0.53;;;;;;;;;;10404895;28;20245;-70
2021/01/12 18:53:40;;;;;;;1.47;0.60;;;;;;;;;;10403579;28;20210;-70
2021/01/12 18:58:43;;;;;;;2.17;1.13;;;;;;;;;;10404871;28;20249;-70
2021/01/12 19:03:48;;;;;;;1.37;1.10;;;;;;;;;;10407845;28;20193;-70
2021/01/12 19:08:51;;;;;;;1.10;0.77;;;;;;;;;;10391334;28;20231;-69
2021/01/12 19:13:57;;;;;;;2.80;0.87;;;;;;;;;;10386243;28;20263;-70
2021/01/12 19:18:59;;;;;;;1.70;1.10;;;;;;;;;;10406141;28;20226;-70
2021/01/12 19:24:05;;;;;;;2.37;1.10;;;;;;;;;;10407456;28;20189;-70
2021/01/12 19:29:07;;;;;;;2.20;1.20;;;;;;;;;;10408307;28;20646;-69
2021/01/12 19:34:12;;;;;;;1.40;1.30;;;;;;;;;;10412455;28;20201;-70
2021/01/12 19:39:15;;;;;;;1.53;0.80;;;;;;;;;;10406035;28;20249;-71
2021/01/12 19:44:18;;;;;;;2.93;1.80;;;;;;;;;;10389608;28;20277;-70
2021/01/12 19:49:20;;;;;;;2.07;1.13;;;;;;;;;;10391356;28;20229;-70
2021/01/12 19:54:24;;;;;;;1.40;0.87;;;;;;;;;;10414570;28;20542;-69
2021/01/12 19:59:26;;;;;;;2.67;1.73;;;;;;;;;;10401245;28;20665;-68
2021/01/12 20:04:28;;;;;;;4.47;1.77;;;;;;;;;;10405239;28;20650;-69
2021/01/12 20:09:31;;;;;;;1.57;0.90;;;;;;;;;;10402274;28;20694;-69
2021/01/12 20:14:33;;;;;;;2.00;1.00;;;;;;;;;;10392020;28;20239;-70
2021/01/12 20:19:36;;;;;;;2.27;1.40;;;;;;;;;;10405494;28;20300;-71
2021/01/12 20:24:40;;;;;;;1.57;0.87;;;;;;;;;;10403459;28;20181;-72
2021/01/12 20:29:42;;;;;;;2.73;1.47;;;;;;;;;;10411527;28;20642;-69
2021/01/12 20:34:44;;;;;;;4.50;2.60;;;;;;;;;;10390466;28;20253;-70
2021/01/12 20:39:47;;;;;;;4.43;2.40;;;;;;;;;;10412252;28;20725;-69
2021/01/12 20:44:50;;;;;;;1.37;0.80;;;;;;;;;;10404733;28;20198;-70
2021/01/12 20:49:52;;;;;;;2.50;1.53;;;;;;;;;;10403568;28;20552;-69
2021/01/12 20:54:56;;;;;;;2.13;1.27;;;;;;;;;;10410597;28;20221;-69
2021/01/12 20:59:57;;;;;;;2.83;1.83;;;;;;;;;;10384583;28;20260;-71
2021/01/12 21:04:59;;;;;;;3.60;1.30;;;;;;;;;;10397343;28;20194;-69
2021/01/12 21:10:04;;;;;;;4.63;2.50;;;;;;;;;;10399289;28;20217;-67
2021/01/12 21:15:06;;;;;;;3.70;1.87;;;;;;;;;;10405507;28;20641;-69
2021/01/12 21:20:08;;;;;;;5.10;2.77;;;;;;;;;;10396829;28;20248;-70
2021/01/12 21:25:11;;;;;;;4.73;2.70;;;;;;;;;;10418298;28;20190;-69
2021/01/12 21:30:13;;;;;;;4.43;1.93;;;;;;;;;;10392366;28;20233;-69
2021/01/12 21:35:15;;;;;;;4.27;2.33;;;;;;;;;;10412798;28;20227;-65
2021/01/12 21:40:18;;;;;;;4.50;2.13;;;;;;;;;;10402386;28;20245;-65
2021/01/12 21:45:19;;;;;;;2.77;1.60;;;;;;;;;;10409514;28;20208;-65
2021/01/12 21:50:21;;;;;;;2.70;1.13;;;;;;;;;;10387987;28;20218;-66
2021/01/12 21:55:24;;;;;;;5.27;2.83;;;;;;;;;;10410643;28;20296;-70
2021/01/12 22:00:26;;;;;;;6.07;3.30;;;;;;;;;;10404295;28;20330;-70
2021/01/12 22:05:27;;;;;;;7.17;3.90;;;;;;;;;;10403599;28;20189;-69
2021/01/12 22:10:30;;;;;;;7.10;3.80;;;;;;;;;;10399743;28;20248;-70
2021/01/12 22:15:31;;;;;;;5.63;2.90;;;;;;;;;;10405787;28;20213;-72
2021/01/12 22:20:33;;;;;;;5.80;2.50;;;;;;;;;;10405540;28;20272;-70
2021/01/12 22:25:35;;;;;;;4.13;1.87;;;;;;;;;;10404381;28;20273;-70
2021/01/12 22:30:37;;;;;;;5.33;2.40;;;;;;;;;;10401775;28;20268;-72
2021/01/12 22:35:38;;;;;;;2.77;1.83;;;;;;;;;;10399964;28;20197;-70
2021/01/12 22:40:40;;;;;;;4.33;2.40;;;;;;;;;;10407451;28;20227;-72
2021/01/12 22:45:42;;;;;;;4.60;2.07;;;;;;;;;;10398210;28;20261;-71
2021/01/12 22:50:44;;;;;;;3.27;1.60;;;;;;;;;;10384616;28;20301;-72
2021/01/12 22:55:46;;;;;;;2.77;1.50;;;;;;;;;;10404502;28;20614;-70
2021/01/12 23:00:48;;;;;;;3.90;1.90;;;;;;;;;;10401401;28;20288;-71
2021/01/12 23:05:52;;;;;;;4.77;2.47;;;;;;;;;;10398239;28;20195;-70
2021/01/12 23:10:55;;;;;;;4.97;2.30;;;;;;;;;;10405232;28;20245;-71
2021/01/12 23:15:56;;;;;;;6.37;3.30;;;;;;;;;;10405353;28;20609;-70
2021/01/12 23:20:59;;;;;;;7.00;3.03;;;;;;;;;;10405712;28;20222;-71
2021/01/12 23:26:03;;;;;;;7.47;3.70;;;;;;;;;;10393421;28;20193;-71
2021/01/12 23:31:05;;;;;;;8.07;3.43;;;;;;;;;;10399819;28;20210;-72
2021/01/12 23:36:07;;;;;;;7.37;3.90;;;;;;;;;;10395746;28;20212;-71
2021/01/12 23:41:10;;;;;;;5.87;3.37;;;;;;;;;;10397261;28;20217;-70
2021/01/12 23:46:12;;;;;;;8.20;4.80;;;;;;;;;;10400298;28;20342;-70
2021/01/12 23:51:14;;;;;;;7.20;3.90;;;;;;;;;;10393610;28;20212;-69
2021/01/12 23:56:16;;;;;;;7.90;3.80;;;;;;;;;;10399140;28;20662;-70
